Meteo Giornale » Osservazioni meteo Italia » Resia Pass

ore: 07:55 - Osservazioni Meteo Resia Pass
Lat. 46° 50' N Lon. 10° 30' E Alt. 1800 metri s.l.m.

sereno Europe/Rome

12 °C

Sereno

Temp. 24 Ore

12 °C

23 °C

Nord

5.5 Km/h

Dew point 12 °C

Umidità 100 %

Visibilità  10 Km

Il sole sorge alle ore 05:26

Il sole tramonta alle ore 21:04

Data e Ora Cielo e Fenomeni T °C DP °C Um. % Pres. hPa Vis. km Vento km/h
Oggi h: 07:55 sereno Sereno 12 12 100 1020 10 N 5.5
Oggi h: 06:55 sereno Sereno 12 12 100 1020 10 N 5.5
Oggi h: 05:55 sereno Sereno 12 12 100 1020 10 N 5.5
Oggi h: 02:55 sereno Sereno 14 14 100 1021 8 N 3.7
Oggi h: 01:55 poco_nuvoloso Poco Nuvoloso 14 14 100 1021 8 N 3.7
Oggi h: 00:55 molto_nuvoloso Molto Nuvoloso 19 19 100 1021 8 N 3.7
Ieri h: 23:55 molto_nuvoloso Molto Nuvoloso 15 15 100 1021 10 N 3.7
Ieri h: 22:55 nuvoloso_piovaschi Debole Rovescio di Pioggia 16 16 100 1021 8 N 0
Ieri h: 21:55 nuvoloso Nuvoloso 19 12 63 1020 10 N 3.7
Ieri h: 20:55 nuvoloso Nuvoloso 20 10 52 1019 10 S 11.1
Ieri h: 19:55 nuvoloso Nuvoloso 21 8 43 1018 10 S/SE 13
Ieri h: 18:55 nuvoloso Nuvoloso 22 7 37 1018 10 S/SE 11.1
Ieri h: 17:55 nuvoloso Nuvoloso 23 3 26 1018 10 S 13
Ieri h: 16:55 poco_nuvoloso Poco Nuvoloso 23 2 25 1019 10 S 11.1
Ieri h: 15:55 poco_nuvoloso Poco Nuvoloso 23 2 25 1019 10 S/SO 13
Ieri h: 14:55 poco_nuvoloso Poco Nuvoloso 23 3 26 1020 10 S 11.1
Ieri h: 13:55 poco_nuvoloso Poco Nuvoloso 23 8 38 1021 10 S/SO 11.1
Ieri h: 12:55 poco_nuvoloso Poco Nuvoloso 22 7 37 1021 10 S/SO 11.1
Ieri h: 11:55 poco_nuvoloso Poco Nuvoloso 21 12 56 1021 10 S/SO 9.3
Ieri h: 10:55 poco_nuvoloso Poco Nuvoloso 18 11 63 1022 10 N/NO 9.3
Ieri h: 09:55 poco_nuvoloso Poco Nuvoloso 15 13 87 1022 10 N 7.4